sensor_id;sensor_type;location;lat;lon;timestamp;P1;durP1;ratioP1;P2;durP2;ratioP2
9214;SDS011;4642;51.364;6.788;2023-06-14T00:00:38;5.43;;;4.47;;
9214;SDS011;4642;51.364;6.788;2023-06-14T00:03:06;5.97;;;3.83;;
9214;SDS011;4642;51.364;6.788;2023-06-14T00:05:34;5.37;;;4.03;;
9214;SDS011;4642;51.364;6.788;2023-06-14T00:08:05;9.60;;;4.73;;
9214;SDS011;4642;51.364;6.788;2023-06-14T00:10:33;6.93;;;4.30;;
9214;SDS011;4642;51.364;6.788;2023-06-14T00:13:00;6.47;;;4.10;;
9214;SDS011;4642;51.364;6.788;2023-06-14T00:15:30;4.73;;;4.23;;
9214;SDS011;4642;51.364;6.788;2023-06-14T00:17:56;5.50;;;4.43;;
9214;SDS011;4642;51.364;6.788;2023-06-14T00:20:26;7.47;;;4.40;;
9214;SDS011;4642;51.364;6.788;2023-06-14T00:22:52;6.27;;;4.43;;
9214;SDS011;4642;51.364;6.788;2023-06-14T00:25:19;4.90;;;4.13;;
9214;SDS011;4642;51.364;6.788;2023-06-14T00:27:47;5.33;;;4.20;;
9214;SDS011;4642;51.364;6.788;2023-06-14T00:30:12;7.80;;;3.93;;
9214;SDS011;4642;51.364;6.788;2023-06-14T00:32:38;6.27;;;4.37;;
9214;SDS011;4642;51.364;6.788;2023-06-14T00:35:04;5.87;;;4.13;;
9214;SDS011;4642;51.364;6.788;2023-06-14T00:37:29;5.83;;;4.17;;
9214;SDS011;4642;51.364;6.788;2023-06-14T00:39:55;5.70;;;4.37;;
9214;SDS011;4642;51.364;6.788;2023-06-14T00:42:27;7.17;;;4.20;;
9214;SDS011;4642;51.364;6.788;2023-06-14T00:44:53;8.03;;;4.33;;
9214;SDS011;4642;51.364;6.788;2023-06-14T00:47:19;6.30;;;4.50;;
9214;SDS011;4642;51.364;6.788;2023-06-14T00:49:45;7.33;;;4.30;;
9214;SDS011;4642;51.364;6.788;2023-06-14T00:52:12;4.97;;;4.10;;
9214;SDS011;4642;51.364;6.788;2023-06-14T00:54:39;6.17;;;4.20;;
9214;SDS011;4642;51.364;6.788;2023-06-14T00:57:06;5.07;;;4.20;;
9214;SDS011;4642;51.364;6.788;2023-06-14T00:59:32;12.30;;;4.97;;
9214;SDS011;4642;51.364;6.788;2023-06-14T01:01:58;5.27;;;4.60;;
9214;SDS011;4642;51.364;6.788;2023-06-14T01:04:23;7.37;;;4.47;;
9214;SDS011;4642;51.364;6.788;2023-06-14T01:06:53;5.57;;;4.70;;
9214;SDS011;4642;51.364;6.788;2023-06-14T01:09:58;5.20;;;4.10;;
9214;SDS011;4642;51.364;6.788;2023-06-14T01:15:38;6.40;;;4.60;;
9214;SDS011;4642;51.364;6.788;2023-06-14T01:18:05;6.27;;;4.67;;
9214;SDS011;4642;51.364;6.788;2023-06-14T01:20:32;4.57;;;4.03;;
9214;SDS011;4642;51.364;6.788;2023-06-14T01:23:01;5.60;;;4.40;;
9214;SDS011;4642;51.364;6.788;2023-06-14T01:25:27;8.20;;;4.83;;
9214;SDS011;4642;51.364;6.788;2023-06-14T01:27:54;5.67;;;4.47;;
9214;SDS011;4642;51.364;6.788;2023-06-14T01:30:23;8.17;;;4.87;;
9214;SDS011;4642;51.364;6.788;2023-06-14T01:32:50;6.33;;;5.03;;
9214;SDS011;4642;51.364;6.788;2023-06-14T01:35:17;6.30;;;4.47;;
9214;SDS011;4642;51.364;6.788;2023-06-14T01:37:43;6.23;;;4.57;;
9214;SDS011;4642;51.364;6.788;2023-06-14T01:40:11;6.00;;;4.90;;
9214;SDS011;4642;51.364;6.788;2023-06-14T01:42:39;5.97;;;4.90;;
9214;SDS011;4642;51.364;6.788;2023-06-14T01:45:05;6.63;;;5.10;;
9214;SDS011;4642;51.364;6.788;2023-06-14T01:47:32;6.40;;;4.50;;
9214;SDS011;4642;51.364;6.788;2023-06-14T01:49:58;8.00;;;4.93;;
9214;SDS011;4642;51.364;6.788;2023-06-14T01:52:24;6.80;;;5.27;;
9214;SDS011;4642;51.364;6.788;2023-06-14T01:54:50;6.87;;;4.80;;
9214;SDS011;4642;51.364;6.788;2023-06-14T01:57:16;8.97;;;4.93;;
9214;SDS011;4642;51.364;6.788;2023-06-14T01:59:41;7.93;;;4.83;;
9214;SDS011;4642;51.364;6.788;2023-06-14T02:02:07;6.30;;;5.30;;
9214;SDS011;4642;51.364;6.788;2023-06-14T02:04:33;6.60;;;4.80;;
9214;SDS011;4642;51.364;6.788;2023-06-14T02:06:58;9.97;;;4.83;;
9214;SDS011;4642;51.364;6.788;2023-06-14T02:09:24;5.80;;;4.60;;
9214;SDS011;4642;51.364;6.788;2023-06-14T02:11:50;5.20;;;4.70;;
9214;SDS011;4642;51.364;6.788;2023-06-14T02:14:16;9.13;;;5.37;;
9214;SDS011;4642;51.364;6.788;2023-06-14T02:16:42;7.53;;;5.00;;
9214;SDS011;4642;51.364;6.788;2023-06-14T02:19:14;6.60;;;4.43;;
9214;SDS011;4642;51.364;6.788;2023-06-14T02:21:43;7.10;;;4.67;;
9214;SDS011;4642;51.364;6.788;2023-06-14T02:24:09;7.77;;;4.90;;
9214;SDS011;4642;51.364;6.788;2023-06-14T02:26:34;7.97;;;4.67;;
9214;SDS011;4642;51.364;6.788;2023-06-14T02:29:00;6.83;;;5.33;;
9214;SDS011;4642;51.364;6.788;2023-06-14T02:31:26;7.27;;;4.93;;
9214;SDS011;4642;51.364;6.788;2023-06-14T02:33:52;5.03;;;4.53;;
9214;SDS011;4642;51.364;6.788;2023-06-14T02:36:17;6.57;;;4.90;;
9214;SDS011;4642;51.364;6.788;2023-06-14T02:38:43;6.57;;;4.57;;
9214;SDS011;4642;51.364;6.788;2023-06-14T02:41:08;6.57;;;5.23;;
9214;SDS011;4642;51.364;6.788;2023-06-14T02:43:34;6.53;;;5.37;;
9214;SDS011;4642;51.364;6.788;2023-06-14T02:46:00;10.70;;;4.77;;
9214;SDS011;4642;51.364;6.788;2023-06-14T02:48:26;6.77;;;4.77;;
9214;SDS011;4642;51.364;6.788;2023-06-14T02:50:52;6.53;;;4.93;;
9214;SDS011;4642;51.364;6.788;2023-06-14T02:53:18;9.23;;;5.10;;
9214;SDS011;4642;51.364;6.788;2023-06-14T02:55:43;6.43;;;4.80;;
9214;SDS011;4642;51.364;6.788;2023-06-14T02:58:09;7.37;;;4.53;;
9214;SDS011;4642;51.364;6.788;2023-06-14T03:00:34;5.83;;;4.57;;
9214;SDS011;4642;51.364;6.788;2023-06-14T03:03:01;4.77;;;4.23;;
9214;SDS011;4642;51.364;6.788;2023-06-14T03:05:26;6.93;;;4.30;;
9214;SDS011;4642;51.364;6.788;2023-06-14T03:07:53;6.40;;;4.83;;
9214;SDS011;4642;51.364;6.788;2023-06-14T03:10:18;6.17;;;4.87;;
9214;SDS011;4642;51.364;6.788;2023-06-14T03:12:44;7.27;;;4.40;;
9214;SDS011;4642;51.364;6.788;2023-06-14T03:15:10;7.13;;;4.60;;
9214;SDS011;4642;51.364;6.788;2023-06-14T03:17:37;5.80;;;4.10;;
9214;SDS011;4642;51.364;6.788;2023-06-14T03:20:04;8.93;;;4.30;;
9214;SDS011;4642;51.364;6.788;2023-06-14T03:22:30;6.13;;;4.50;;
9214;SDS011;4642;51.364;6.788;2023-06-14T03:24:58;5.87;;;4.93;;
9214;SDS011;4642;51.364;6.788;2023-06-14T03:27:24;5.90;;;4.33;;
9214;SDS011;4642;51.364;6.788;2023-06-14T03:29:50;5.00;;;4.50;;
9214;SDS011;4642;51.364;6.788;2023-06-14T03:32:16;5.57;;;4.60;;
9214;SDS011;4642;51.364;6.788;2023-06-14T03:34:42;5.50;;;4.60;;
9214;SDS011;4642;51.364;6.788;2023-06-14T03:37:07;9.87;;;4.77;;
9214;SDS011;4642;51.364;6.788;2023-06-14T03:39:33;7.10;;;4.63;;
9214;SDS011;4642;51.364;6.788;2023-06-14T03:41:58;6.30;;;4.40;;
9214;SDS011;4642;51.364;6.788;2023-06-14T03:44:26;6.97;;;4.80;;
9214;SDS011;4642;51.364;6.788;2023-06-14T03:46:52;7.47;;;4.90;;
9214;SDS011;4642;51.364;6.788;2023-06-14T03:49:18;6.37;;;4.53;;
9214;SDS011;4642;51.364;6.788;2023-06-14T03:51:43;4.97;;;4.47;;
9214;SDS011;4642;51.364;6.788;2023-06-14T03:54:09;7.13;;;4.47;;
9214;SDS011;4642;51.364;6.788;2023-06-14T03:56:35;6.30;;;4.93;;
9214;SDS011;4642;51.364;6.788;2023-06-14T03:59:01;5.43;;;4.43;;
9214;SDS011;4642;51.364;6.788;2023-06-14T04:01:27;6.87;;;4.17;;
9214;SDS011;4642;51.364;6.788;2023-06-14T04:03:55;6.40;;;4.37;;
9214;SDS011;4642;51.364;6.788;2023-06-14T04:06:21;8.00;;;4.67;;
9214;SDS011;4642;51.364;6.788;2023-06-14T04:08:49;5.07;;;4.20;;
9214;SDS011;4642;51.364;6.788;2023-06-14T04:11:15;6.63;;;4.33;;
9214;SDS011;4642;51.364;6.788;2023-06-14T04:13:41;4.73;;;4.07;;
9214;SDS011;4642;51.364;6.788;2023-06-14T04:16:07;6.47;;;4.10;;
9214;SDS011;4642;51.364;6.788;2023-06-14T04:18:32;6.00;;;4.30;;
9214;SDS011;4642;51.364;6.788;2023-06-14T04:20:58;4.53;;;3.60;;
9214;SDS011;4642;51.364;6.788;2023-06-14T04:23:24;5.03;;;3.70;;
9214;SDS011;4642;51.364;6.788;2023-06-14T04:25:49;6.87;;;3.60;;
9214;SDS011;4642;51.364;6.788;2023-06-14T04:28:15;5.00;;;3.83;;
9214;SDS011;4642;51.364;6.788;2023-06-14T04:30:42;4.33;;;3.73;;
9214;SDS011;4642;51.364;6.788;2023-06-14T04:33:08;3.90;;;3.50;;
9214;SDS011;4642;51.364;6.788;2023-06-14T04:35:34;4.97;;;3.50;;
9214;SDS011;4642;51.364;6.788;2023-06-14T04:38:01;4.17;;;3.30;;
9214;SDS011;4642;51.364;6.788;2023-06-14T04:40:29;7.57;;;3.40;;
9214;SDS011;4642;51.364;6.788;2023-06-14T04:42:55;6.93;;;3.90;;
9214;SDS011;4642;51.364;6.788;2023-06-14T04:45:20;4.73;;;3.40;;
9214;SDS011;4642;51.364;6.788;2023-06-14T04:47:47;4.23;;;3.30;;
9214;SDS011;4642;51.364;6.788;2023-06-14T04:50:12;6.87;;;3.70;;
9214;SDS011;4642;51.364;6.788;2023-06-14T04:52:38;3.67;;;3.00;;
9214;SDS011;4642;51.364;6.788;2023-06-14T04:55:03;7.43;;;3.30;;
9214;SDS011;4642;51.364;6.788;2023-06-14T04:57:30;5.53;;;3.23;;
9214;SDS011;4642;51.364;6.788;2023-06-14T04:59:56;5.10;;;3.33;;
9214;SDS011;4642;51.364;6.788;2023-06-14T05:02:22;7.50;;;3.37;;
9214;SDS011;4642;51.364;6.788;2023-06-14T05:04:48;4.40;;;3.40;;
9214;SDS011;4642;51.364;6.788;2023-06-14T05:07:14;6.60;;;3.27;;
9214;SDS011;4642;51.364;6.788;2023-06-14T05:09:40;4.57;;;2.90;;
9214;SDS011;4642;51.364;6.788;2023-06-14T05:12:05;5.83;;;3.00;;
9214;SDS011;4642;51.364;6.788;2023-06-14T05:14:34;4.53;;;3.13;;
9214;SDS011;4642;51.364;6.788;2023-06-14T05:17:00;4.03;;;3.00;;
9214;SDS011;4642;51.364;6.788;2023-06-14T05:19:27;5.73;;;3.00;;
9214;SDS011;4642;51.364;6.788;2023-06-14T05:21:53;7.67;;;3.37;;
9214;SDS011;4642;51.364;6.788;2023-06-14T05:24:19;6.93;;;3.10;;
9214;SDS011;4642;51.364;6.788;2023-06-14T05:26:44;3.90;;;2.70;;
9214;SDS011;4642;51.364;6.788;2023-06-14T05:29:10;5.03;;;3.10;;
9214;SDS011;4642;51.364;6.788;2023-06-14T05:31:36;5.23;;;3.00;;
9214;SDS011;4642;51.364;6.788;2023-06-14T05:34:02;3.47;;;2.50;;
9214;SDS011;4642;51.364;6.788;2023-06-14T05:36:28;5.20;;;3.33;;
9214;SDS011;4642;51.364;6.788;2023-06-14T05:38:54;4.80;;;2.97;;
9214;SDS011;4642;51.364;6.788;2023-06-14T05:41:25;4.00;;;2.80;;
9214;SDS011;4642;51.364;6.788;2023-06-14T05:43:52;3.83;;;2.57;;
9214;SDS011;4642;51.364;6.788;2023-06-14T05:46:18;3.80;;;2.90;;
9214;SDS011;4642;51.364;6.788;2023-06-14T05:48:47;4.63;;;2.73;;
9214;SDS011;4642;51.364;6.788;2023-06-14T05:51:13;9.53;;;2.70;;
9214;SDS011;4642;51.364;6.788;2023-06-14T05:53:39;5.53;;;3.10;;
9214;SDS011;4642;51.364;6.788;2023-06-14T05:56:05;4.77;;;3.17;;
9214;SDS011;4642;51.364;6.788;2023-06-14T05:58:31;5.77;;;2.63;;
9214;SDS011;4642;51.364;6.788;2023-06-14T06:00:56;4.40;;;2.40;;
9214;SDS011;4642;51.364;6.788;2023-06-14T06:03:22;4.97;;;2.60;;
9214;SDS011;4642;51.364;6.788;2023-06-14T06:05:48;5.43;;;2.70;;
9214;SDS011;4642;51.364;6.788;2023-06-14T06:08:13;5.60;;;2.70;;
9214;SDS011;4642;51.364;6.788;2023-06-14T06:10:39;8.17;;;2.73;;
9214;SDS011;4642;51.364;6.788;2023-06-14T06:13:05;5.03;;;2.50;;
9214;SDS011;4642;51.364;6.788;2023-06-14T06:15:30;5.03;;;2.80;;
9214;SDS011;4642;51.364;6.788;2023-06-14T06:17:56;6.77;;;2.80;;
9214;SDS011;4642;51.364;6.788;2023-06-14T06:20:22;6.10;;;3.03;;
9214;SDS011;4642;51.364;6.788;2023-06-14T06:22:52;4.97;;;2.43;;
9214;SDS011;4642;51.364;6.788;2023-06-14T06:25:18;6.10;;;2.93;;
9214;SDS011;4642;51.364;6.788;2023-06-14T06:27:44;4.23;;;2.50;;
9214;SDS011;4642;51.364;6.788;2023-06-14T06:30:10;9.37;;;2.73;;
9214;SDS011;4642;51.364;6.788;2023-06-14T06:32:36;4.97;;;2.70;;
9214;SDS011;4642;51.364;6.788;2023-06-14T06:35:02;6.87;;;2.60;;
9214;SDS011;4642;51.364;6.788;2023-06-14T06:37:28;5.00;;;2.53;;
9214;SDS011;4642;51.364;6.788;2023-06-14T06:39:53;5.13;;;2.60;;
9214;SDS011;4642;51.364;6.788;2023-06-14T06:42:19;6.10;;;3.03;;
9214;SDS011;4642;51.364;6.788;2023-06-14T06:44:45;3.30;;;2.37;;
9214;SDS011;4642;51.364;6.788;2023-06-14T06:47:10;4.23;;;2.70;;
9214;SDS011;4642;51.364;6.788;2023-06-14T06:49:36;4.87;;;2.63;;
9214;SDS011;4642;51.364;6.788;2023-06-14T06:52:05;3.60;;;2.43;;
9214;SDS011;4642;51.364;6.788;2023-06-14T06:54:31;3.60;;;2.63;;
9214;SDS011;4642;51.364;6.788;2023-06-14T06:56:57;5.07;;;2.70;;
9214;SDS011;4642;51.364;6.788;2023-06-14T06:59:23;4.30;;;2.43;;
9214;SDS011;4642;51.364;6.788;2023-06-14T07:01:48;4.07;;;2.23;;
9214;SDS011;4642;51.364;6.788;2023-06-14T07:04:15;3.63;;;2.40;;
9214;SDS011;4642;51.364;6.788;2023-06-14T07:06:41;2.93;;;1.93;;
9214;SDS011;4642;51.364;6.788;2023-06-14T07:09:07;4.87;;;2.20;;
9214;SDS011;4642;51.364;6.788;2023-06-14T07:11:37;3.10;;;2.10;;
9214;SDS011;4642;51.364;6.788;2023-06-14T07:14:03;11.40;;;2.27;;
9214;SDS011;4642;51.364;6.788;2023-06-14T07:16:29;4.50;;;1.87;;
9214;SDS011;4642;51.364;6.788;2023-06-14T07:18:55;3.70;;;1.53;;
9214;SDS011;4642;51.364;6.788;2023-06-14T07:21:20;2.73;;;1.70;;
9214;SDS011;4642;51.364;6.788;2023-06-14T07:23:46;6.50;;;1.67;;
9214;SDS011;4642;51.364;6.788;2023-06-14T07:26:11;2.40;;;1.80;;
9214;SDS011;4642;51.364;6.788;2023-06-14T07:28:37;3.20;;;2.10;;
9214;SDS011;4642;51.364;6.788;2023-06-14T07:31:02;3.17;;;1.50;;
9214;SDS011;4642;51.364;6.788;2023-06-14T07:33:28;4.63;;;1.53;;
9214;SDS011;4642;51.364;6.788;2023-06-14T07:35:53;7.77;;;1.60;;
9214;SDS011;4642;51.364;6.788;2023-06-14T07:38:19;4.60;;;1.47;;
9214;SDS011;4642;51.364;6.788;2023-06-14T07:40:44;3.57;;;1.80;;
9214;SDS011;4642;51.364;6.788;2023-06-14T07:43:10;1.93;;;1.43;;
9214;SDS011;4642;51.364;6.788;2023-06-14T07:45:36;4.07;;;1.73;;
9214;SDS011;4642;51.364;6.788;2023-06-14T07:48:02;4.63;;;1.80;;
9214;SDS011;4642;51.364;6.788;2023-06-14T07:50:28;1.73;;;1.43;;
9214;SDS011;4642;51.364;6.788;2023-06-14T07:52:54;3.23;;;1.50;;
9214;SDS011;4642;51.364;6.788;2023-06-14T07:55:19;1.63;;;1.33;;
9214;SDS011;4642;51.364;6.788;2023-06-14T07:57:45;2.23;;;1.60;;
9214;SDS011;4642;51.364;6.788;2023-06-14T08:00:11;6.67;;;1.83;;
9214;SDS011;4642;51.364;6.788;2023-06-14T08:02:40;1.47;;;1.10;;
9214;SDS011;4642;51.364;6.788;2023-06-14T08:05:06;1.63;;;1.40;;
9214;SDS011;4642;51.364;6.788;2023-06-14T08:07:33;2.73;;;1.47;;
9214;SDS011;4642;51.364;6.788;2023-06-14T08:09:59;4.87;;;1.77;;
9214;SDS011;4642;51.364;6.788;2023-06-14T08:12:25;1.90;;;1.40;;
9214;SDS011;4642;51.364;6.788;2023-06-14T08:14:51;5.93;;;1.50;;
9214;SDS011;4642;51.364;6.788;2023-06-14T08:17:16;3.97;;;1.30;;
9214;SDS011;4642;51.364;6.788;2023-06-14T08:19:42;5.17;;;1.60;;
9214;SDS011;4642;51.364;6.788;2023-06-14T08:22:07;4.20;;;1.40;;
9214;SDS011;4642;51.364;6.788;2023-06-14T08:24:36;2.83;;;1.40;;
9214;SDS011;4642;51.364;6.788;2023-06-14T08:27:02;2.47;;;1.50;;
9214;SDS011;4642;51.364;6.788;2023-06-14T08:29:28;5.27;;;1.70;;
9214;SDS011;4642;51.364;6.788;2023-06-14T08:31:55;1.30;;;1.20;;
9214;SDS011;4642;51.364;6.788;2023-06-14T08:34:21;2.97;;;1.40;;
9214;SDS011;4642;51.364;6.788;2023-06-14T08:36:48;5.90;;;1.60;;
9214;SDS011;4642;51.364;6.788;2023-06-14T08:39:17;3.43;;;1.60;;
9214;SDS011;4642;51.364;6.788;2023-06-14T08:41:43;3.03;;;1.40;;
9214;SDS011;4642;51.364;6.788;2023-06-14T08:44:16;3.63;;;1.30;;
9214;SDS011;4642;51.364;6.788;2023-06-14T08:46:41;1.67;;;1.27;;
9214;SDS011;4642;51.364;6.788;2023-06-14T08:49:07;4.43;;;1.27;;
9214;SDS011;4642;51.364;6.788;2023-06-14T08:51:36;3.97;;;1.53;;
9214;SDS011;4642;51.364;6.788;2023-06-14T08:54:02;3.03;;;1.50;;
9214;SDS011;4642;51.364;6.788;2023-06-14T08:56:29;4.70;;;1.20;;
9214;SDS011;4642;51.364;6.788;2023-06-14T08:58:56;2.07;;;1.33;;
9214;SDS011;4642;51.364;6.788;2023-06-14T09:01:25;4.30;;;1.77;;
9214;SDS011;4642;51.364;6.788;2023-06-14T09:03:52;6.60;;;1.30;;
9214;SDS011;4642;51.364;6.788;2023-06-14T09:06:19;7.60;;;1.87;;
9214;SDS011;4642;51.364;6.788;2023-06-14T09:08:48;3.37;;;1.43;;
9214;SDS011;4642;51.364;6.788;2023-06-14T09:11:15;3.73;;;1.80;;
9214;SDS011;4642;51.364;6.788;2023-06-14T09:13:44;3.43;;;1.40;;
9214;SDS011;4642;51.364;6.788;2023-06-14T09:16:11;2.13;;;1.73;;
9214;SDS011;4642;51.364;6.788;2023-06-14T09:18:37;6.40;;;1.40;;
9214;SDS011;4642;51.364;6.788;2023-06-14T09:21:09;2.53;;;1.50;;
9214;SDS011;4642;51.364;6.788;2023-06-14T09:23:45;5.23;;;1.67;;
9214;SDS011;4642;51.364;6.788;2023-06-14T09:26:16;5.93;;;1.70;;
9214;SDS011;4642;51.364;6.788;2023-06-14T09:28:44;5.13;;;1.63;;
9214;SDS011;4642;51.364;6.788;2023-06-14T09:31:12;3.67;;;1.60;;
9214;SDS011;4642;51.364;6.788;2023-06-14T09:33:38;4.43;;;1.40;;
9214;SDS011;4642;51.364;6.788;2023-06-14T09:36:11;5.17;;;1.53;;
9214;SDS011;4642;51.364;6.788;2023-06-14T09:38:40;2.23;;;1.37;;
9214;SDS011;4642;51.364;6.788;2023-06-14T09:41:06;3.40;;;1.90;;
9214;SDS011;4642;51.364;6.788;2023-06-14T09:43:32;1.67;;;1.33;;
9214;SDS011;4642;51.364;6.788;2023-06-14T09:46:00;1.73;;;1.63;;
9214;SDS011;4642;51.364;6.788;2023-06-14T09:48:26;5.07;;;1.27;;
9214;SDS011;4642;51.364;6.788;2023-06-14T09:50:51;3.33;;;1.53;;
9214;SDS011;4642;51.364;6.788;2023-06-14T09:53:20;2.03;;;1.73;;
9214;SDS011;4642;51.364;6.788;2023-06-14T09:55:48;2.53;;;1.30;;
9214;SDS011;4642;51.364;6.788;2023-06-14T09:58:15;4.70;;;1.43;;
9214;SDS011;4642;51.364;6.788;2023-06-14T10:00:42;3.33;;;1.63;;
9214;SDS011;4642;51.364;6.788;2023-06-14T10:03:11;5.97;;;1.30;;
9214;SDS011;4642;51.364;6.788;2023-06-14T10:05:39;2.50;;;1.40;;
9214;SDS011;4642;51.364;6.788;2023-06-14T10:08:08;3.50;;;1.10;;
9214;SDS011;4642;51.364;6.788;2023-06-14T10:10:38;1.97;;;1.30;;
9214;SDS011;4642;51.364;6.788;2023-06-14T10:13:05;1.33;;;1.23;;
9214;SDS011;4642;51.364;6.788;2023-06-14T10:15:42;4.70;;;1.43;;
9214;SDS011;4642;51.364;6.788;2023-06-14T10:21:08;4.20;;;1.20;;
9214;SDS011;4642;51.364;6.788;2023-06-14T10:23:42;3.07;;;1.47;;
9214;SDS011;4642;51.364;6.788;2023-06-14T10:26:13;2.10;;;1.20;;
9214;SDS011;4642;51.364;6.788;2023-06-14T10:31:47;2.23;;;1.10;;
9214;SDS011;4642;51.364;6.788;2023-06-14T10:34:38;1.63;;;1.20;;
9214;SDS011;4642;51.364;6.788;2023-06-14T10:39:30;2.50;;;1.00;;
9214;SDS011;4642;51.364;6.788;2023-06-14T10:41:57;1.17;;;1.07;;
9214;SDS011;4642;51.364;6.788;2023-06-14T10:46:54;1.23;;;0.83;;
9214;SDS011;4642;51.364;6.788;2023-06-14T10:49:38;3.30;;;1.07;;
9214;SDS011;4642;51.364;6.788;2023-06-14T10:52:07;2.93;;;0.90;;
9214;SDS011;4642;51.364;6.788;2023-06-14T10:57:40;2.90;;;1.10;;
9214;SDS011;4642;51.364;6.788;2023-06-14T11:00:07;1.70;;;1.03;;
9214;SDS011;4642;51.364;6.788;2023-06-14T11:05:25;1.37;;;0.77;;
9214;SDS011;4642;51.364;6.788;2023-06-14T11:08:11;2.97;;;0.90;;
9214;SDS011;4642;51.364;6.788;2023-06-14T11:10:46;1.10;;;1.00;;
9214;SDS011;4642;51.364;6.788;2023-06-14T11:13:13;3.27;;;1.40;;
9214;SDS011;4642;51.364;6.788;2023-06-14T11:15:45;2.77;;;1.00;;
9214;SDS011;4642;51.364;6.788;2023-06-14T11:18:12;2.50;;;1.10;;
9214;SDS011;4642;51.364;6.788;2023-06-14T11:20:39;4.40;;;0.87;;
9214;SDS011;4642;51.364;6.788;2023-06-14T11:23:08;2.90;;;1.13;;
9214;SDS011;4642;51.364;6.788;2023-06-14T11:25:33;1.63;;;1.03;;
9214;SDS011;4642;51.364;6.788;2023-06-14T11:27:59;1.03;;;0.90;;
9214;SDS011;4642;51.364;6.788;2023-06-14T11:30:25;1.87;;;1.03;;
9214;SDS011;4642;51.364;6.788;2023-06-14T11:32:51;2.67;;;1.20;;
9214;SDS011;4642;51.364;6.788;2023-06-14T11:35:18;2.40;;;1.10;;
9214;SDS011;4642;51.364;6.788;2023-06-14T11:37:48;1.07;;;0.97;;
9214;SDS011;4642;51.364;6.788;2023-06-14T11:40:14;2.47;;;1.03;;
9214;SDS011;4642;51.364;6.788;2023-06-14T11:42:41;3.97;;;1.00;;
9214;SDS011;4642;51.364;6.788;2023-06-14T11:45:07;2.23;;;0.97;;
9214;SDS011;4642;51.364;6.788;2023-06-14T11:47:34;1.77;;;1.00;;
9214;SDS011;4642;51.364;6.788;2023-06-14T11:50:01;3.57;;;1.10;;
9214;SDS011;4642;51.364;6.788;2023-06-14T11:52:27;3.10;;;1.20;;
9214;SDS011;4642;51.364;6.788;2023-06-14T11:54:53;2.97;;;1.13;;
9214;SDS011;4642;51.364;6.788;2023-06-14T11:57:19;2.47;;;1.13;;
9214;SDS011;4642;51.364;6.788;2023-06-14T11:59:45;2.13;;;1.20;;
9214;SDS011;4642;51.364;6.788;2023-06-14T12:02:15;2.45;;;1.00;;
9214;SDS011;4642;51.364;6.788;2023-06-14T12:04:41;1.33;;;1.20;;
9214;SDS011;4642;51.364;6.788;2023-06-14T12:07:11;1.83;;;1.03;;
9214;SDS011;4642;51.364;6.788;2023-06-14T12:09:43;5.73;;;1.10;;
9214;SDS011;4642;51.364;6.788;2023-06-14T12:12:28;7.83;;;1.00;;
9214;SDS011;4642;51.364;6.788;2023-06-14T12:14:56;5.00;;;1.13;;
9214;SDS011;4642;51.364;6.788;2023-06-14T12:17:22;0.87;;;0.70;;
9214;SDS011;4642;51.364;6.788;2023-06-14T12:19:48;4.60;;;1.20;;
9214;SDS011;4642;51.364;6.788;2023-06-14T12:22:15;2.37;;;0.93;;
9214;SDS011;4642;51.364;6.788;2023-06-14T12:24:44;1.70;;;0.97;;
9214;SDS011;4642;51.364;6.788;2023-06-14T12:27:10;7.57;;;1.13;;
9214;SDS011;4642;51.364;6.788;2023-06-14T12:29:40;1.00;;;0.90;;
9214;SDS011;4642;51.364;6.788;2023-06-14T12:32:08;1.50;;;1.03;;
9214;SDS011;4642;51.364;6.788;2023-06-14T12:34:34;1.13;;;0.90;;
9214;SDS011;4642;51.364;6.788;2023-06-14T12:37:00;1.63;;;1.17;;
9214;SDS011;4642;51.364;6.788;2023-06-14T12:39:26;1.10;;;0.87;;
9214;SDS011;4642;51.364;6.788;2023-06-14T12:41:52;2.90;;;1.10;;
9214;SDS011;4642;51.364;6.788;2023-06-14T12:44:18;2.00;;;0.90;;
9214;SDS011;4642;51.364;6.788;2023-06-14T12:46:44;1.63;;;1.00;;
9214;SDS011;4642;51.364;6.788;2023-06-14T12:49:10;3.33;;;1.30;;
9214;SDS011;4642;51.364;6.788;2023-06-14T12:51:39;1.33;;;0.80;;
9214;SDS011;4642;51.364;6.788;2023-06-14T12:54:05;2.33;;;1.30;;
9214;SDS011;4642;51.364;6.788;2023-06-14T12:56:31;2.17;;;1.20;;
9214;SDS011;4642;51.364;6.788;2023-06-14T12:58:57;1.67;;;1.02;;
9214;SDS011;4642;51.364;6.788;2023-06-14T13:01:23;3.53;;;1.30;;
9214;SDS011;4642;51.364;6.788;2023-06-14T13:03:49;5.60;;;1.23;;
9214;SDS011;4642;51.364;6.788;2023-06-14T13:06:16;1.33;;;1.03;;
9214;SDS011;4642;51.364;6.788;2023-06-14T13:08:42;5.40;;;1.20;;
9214;SDS011;4642;51.364;6.788;2023-06-14T13:11:08;1.63;;;1.17;;
9214;SDS011;4642;51.364;6.788;2023-06-14T13:13:33;3.37;;;1.40;;
9214;SDS011;4642;51.364;6.788;2023-06-14T13:15:59;4.13;;;1.30;;
9214;SDS011;4642;51.364;6.788;2023-06-14T13:18:25;1.50;;;1.27;;
9214;SDS011;4642;51.364;6.788;2023-06-14T13:20:50;2.27;;;1.30;;
9214;SDS011;4642;51.364;6.788;2023-06-14T13:23:16;2.77;;;1.43;;
9214;SDS011;4642;51.364;6.788;2023-06-14T13:25:42;1.27;;;1.17;;
9214;SDS011;4642;51.364;6.788;2023-06-14T13:28:08;3.60;;;1.20;;
9214;SDS011;4642;51.364;6.788;2023-06-14T13:30:34;4.40;;;1.38;;
9214;SDS011;4642;51.364;6.788;2023-06-14T13:33:00;2.45;;;1.17;;
9214;SDS011;4642;51.364;6.788;2023-06-14T13:35:26;2.45;;;1.58;;
9214;SDS011;4642;51.364;6.788;2023-06-14T13:37:52;4.13;;;1.42;;
9214;SDS011;4642;51.364;6.788;2023-06-14T13:40:17;3.83;;;1.40;;
9214;SDS011;4642;51.364;6.788;2023-06-14T13:42:43;2.08;;;1.30;;
9214;SDS011;4642;51.364;6.788;2023-06-14T13:45:10;3.65;;;1.50;;
9214;SDS011;4642;51.364;6.788;2023-06-14T13:47:36;1.60;;;1.25;;
9214;SDS011;4642;51.364;6.788;2023-06-14T13:50:02;1.33;;;1.23;;
9214;SDS011;4642;51.364;6.788;2023-06-14T13:52:28;2.20;;;1.10;;
9214;SDS011;4642;51.364;6.788;2023-06-14T13:54:54;6.05;;;1.20;;
9214;SDS011;4642;51.364;6.788;2023-06-14T13:57:19;1.65;;;1.40;;
9214;SDS011;4642;51.364;6.788;2023-06-14T13:59:45;2.15;;;1.40;;
9214;SDS011;4642;51.364;6.788;2023-06-14T14:02:10;2.40;;;1.70;;
9214;SDS011;4642;51.364;6.788;2023-06-14T14:04:37;1.77;;;1.42;;
9214;SDS011;4642;51.364;6.788;2023-06-14T14:07:03;1.48;;;1.38;;
9214;SDS011;4642;51.364;6.788;2023-06-14T14:09:30;6.05;;;1.20;;
9214;SDS011;4642;51.364;6.788;2023-06-14T14:11:57;3.22;;;1.60;;
9214;SDS011;4642;51.364;6.788;2023-06-14T14:14:23;3.08;;;1.60;;
9214;SDS011;4642;51.364;6.788;2023-06-14T14:16:49;1.92;;;1.40;;
9214;SDS011;4642;51.364;6.788;2023-06-14T14:19:19;1.65;;;1.50;;
9214;SDS011;4642;51.364;6.788;2023-06-14T14:21:48;2.95;;;1.35;;
9214;SDS011;4642;51.364;6.788;2023-06-14T14:24:13;2.03;;;1.42;;
9214;SDS011;4642;51.364;6.788;2023-06-14T14:26:39;3.70;;;1.50;;
9214;SDS011;4642;51.364;6.788;2023-06-14T14:29:05;4.03;;;1.52;;
9214;SDS011;4642;51.364;6.788;2023-06-14T14:31:31;3.38;;;1.40;;
9214;SDS011;4642;51.364;6.788;2023-06-14T14:33:56;1.90;;;1.13;;
9214;SDS011;4642;51.364;6.788;2023-06-14T14:36:22;2.85;;;1.40;;
9214;SDS011;4642;51.364;6.788;2023-06-14T14:38:48;7.32;;;1.70;;
9214;SDS011;4642;51.364;6.788;2023-06-14T14:41:13;2.10;;;1.30;;
9214;SDS011;4642;51.364;6.788;2023-06-14T14:43:39;2.53;;;1.40;;
9214;SDS011;4642;51.364;6.788;2023-06-14T14:46:05;3.15;;;2.25;;
9214;SDS011;4642;51.364;6.788;2023-06-14T14:48:30;4.10;;;1.30;;
9214;SDS011;4642;51.364;6.788;2023-06-14T14:50:56;1.60;;;1.40;;
9214;SDS011;4642;51.364;6.788;2023-06-14T14:53:21;2.95;;;1.42;;
9214;SDS011;4642;51.364;6.788;2023-06-14T14:55:47;4.20;;;1.30;;
9214;SDS011;4642;51.364;6.788;2023-06-14T14:58:12;4.25;;;1.70;;
9214;SDS011;4642;51.364;6.788;2023-06-14T15:00:41;1.92;;;1.70;;
9214;SDS011;4642;51.364;6.788;2023-06-14T15:03:07;2.00;;;1.60;;
9214;SDS011;4642;51.364;6.788;2023-06-14T15:05:33;3.67;;;1.58;;
9214;SDS011;4642;51.364;6.788;2023-06-14T15:07:58;5.35;;;1.42;;
9214;SDS011;4642;51.364;6.788;2023-06-14T15:10:24;3.70;;;1.63;;
9214;SDS011;4642;51.364;6.788;2023-06-14T15:12:49;2.97;;;1.48;;
9214;SDS011;4642;51.364;6.788;2023-06-14T15:15:15;2.50;;;1.60;;
9214;SDS011;4642;51.364;6.788;2023-06-14T15:17:40;3.00;;;1.25;;
9214;SDS011;4642;51.364;6.788;2023-06-14T15:20:06;3.00;;;1.35;;
9214;SDS011;4642;51.364;6.788;2023-06-14T15:22:32;2.35;;;1.40;;
9214;SDS011;4642;51.364;6.788;2023-06-14T15:24:58;1.50;;;1.40;;
9214;SDS011;4642;51.364;6.788;2023-06-14T15:27:24;1.98;;;1.30;;
9214;SDS011;4642;51.364;6.788;2023-06-14T15:29:49;2.25;;;1.60;;
9214;SDS011;4642;51.364;6.788;2023-06-14T15:32:15;2.85;;;1.60;;